sensor_id;sensor_type;location;lat;lon;timestamp;P1;durP1;ratioP1;P2;durP2;ratioP2
70560;SDS011;58109;53.570;10.084;2023-05-16T00:01:59;10.33;;;4.50;;
70560;SDS011;58109;53.570;10.084;2023-05-16T00:04:27;6.70;;;5.33;;
70560;SDS011;58109;53.570;10.084;2023-05-16T00:06:52;8.47;;;4.40;;
70560;SDS011;58109;53.570;10.084;2023-05-16T00:09:18;8.93;;;5.30;;
70560;SDS011;58109;53.570;10.084;2023-05-16T00:11:44;12.90;;;5.73;;
70560;SDS011;58109;53.570;10.084;2023-05-16T00:14:12;9.53;;;4.80;;
70560;SDS011;58109;53.570;10.084;2023-05-16T00:16:38;7.73;;;4.97;;
70560;SDS011;58109;53.570;10.084;2023-05-16T00:19:05;9.73;;;6.73;;
70560;SDS011;58109;53.570;10.084;2023-05-16T00:21:35;13.47;;;9.60;;
70560;SDS011;58109;53.570;10.084;2023-05-16T00:24:01;8.67;;;5.97;;
70560;SDS011;58109;53.570;10.084;2023-05-16T00:26:28;6.93;;;4.50;;
70560;SDS011;58109;53.570;10.084;2023-05-16T00:28:53;8.87;;;6.10;;
70560;SDS011;58109;53.570;10.084;2023-05-16T00:31:21;8.00;;;5.07;;
70560;SDS011;58109;53.570;10.084;2023-05-16T00:33:47;10.30;;;4.40;;
70560;SDS011;58109;53.570;10.084;2023-05-16T00:36:15;8.03;;;3.43;;
70560;SDS011;58109;53.570;10.084;2023-05-16T00:38:40;7.93;;;3.93;;
70560;SDS011;58109;53.570;10.084;2023-05-16T00:41:08;3.90;;;3.37;;
70560;SDS011;58109;53.570;10.084;2023-05-16T00:43:34;5.20;;;2.77;;
70560;SDS011;58109;53.570;10.084;2023-05-16T00:45:59;5.27;;;3.80;;
70560;SDS011;58109;53.570;10.084;2023-05-16T00:48:28;7.20;;;2.87;;
70560;SDS011;58109;53.570;10.084;2023-05-16T00:50:53;6.97;;;3.03;;
70560;SDS011;58109;53.570;10.084;2023-05-16T00:53:18;6.00;;;2.80;;
70560;SDS011;58109;53.570;10.084;2023-05-16T00:55:44;7.80;;;2.67;;
70560;SDS011;58109;53.570;10.084;2023-05-16T00:58:10;5.83;;;2.97;;
70560;SDS011;58109;53.570;10.084;2023-05-16T01:00:35;11.23;;;2.87;;
70560;SDS011;58109;53.570;10.084;2023-05-16T01:03:02;2.33;;;2.13;;
70560;SDS011;58109;53.570;10.084;2023-05-16T01:05:29;5.03;;;2.70;;
70560;SDS011;58109;53.570;10.084;2023-05-16T01:07:55;8.33;;;3.00;;
70560;SDS011;58109;53.570;10.084;2023-05-16T01:10:20;6.47;;;2.30;;
70560;SDS011;58109;53.570;10.084;2023-05-16T01:12:55;3.27;;;1.90;;
70560;SDS011;58109;53.570;10.084;2023-05-16T01:15:49;5.60;;;3.87;;
70560;SDS011;58109;53.570;10.084;2023-05-16T01:18:34;11.73;;;2.23;;
70560;SDS011;58109;53.570;10.084;2023-05-16T01:21:11;4.93;;;1.93;;
70560;SDS011;58109;53.570;10.084;2023-05-16T01:26:26;12.90;;;2.50;;
70560;SDS011;58109;53.570;10.084;2023-05-16T01:28:52;4.47;;;1.80;;
70560;SDS011;58109;53.570;10.084;2023-05-16T01:31:18;4.77;;;3.70;;
70560;SDS011;58109;53.570;10.084;2023-05-16T01:33:47;9.77;;;2.00;;
70560;SDS011;58109;53.570;10.084;2023-05-16T01:36:16;2.80;;;1.70;;
70560;SDS011;58109;53.570;10.084;2023-05-16T01:41:20;4.20;;;1.80;;
70560;SDS011;58109;53.570;10.084;2023-05-16T01:43:54;9.53;;;2.63;;
70560;SDS011;58109;53.570;10.084;2023-05-16T01:46:24;8.43;;;4.97;;
70560;SDS011;58109;53.570;10.084;2023-05-16T01:48:59;6.63;;;2.50;;
70560;SDS011;58109;53.570;10.084;2023-05-16T01:51:26;8.90;;;3.00;;
70560;SDS011;58109;53.570;10.084;2023-05-16T01:53:55;2.70;;;2.33;;
70560;SDS011;58109;53.570;10.084;2023-05-16T01:56:27;3.97;;;2.50;;
70560;SDS011;58109;53.570;10.084;2023-05-16T01:58:56;3.80;;;2.17;;
70560;SDS011;58109;53.570;10.084;2023-05-16T02:01:22;8.67;;;1.87;;
70560;SDS011;58109;53.570;10.084;2023-05-16T02:03:47;13.10;;;2.60;;
70560;SDS011;58109;53.570;10.084;2023-05-16T02:06:13;11.70;;;2.30;;
70560;SDS011;58109;53.570;10.084;2023-05-16T02:08:38;2.90;;;1.50;;
70560;SDS011;58109;53.570;10.084;2023-05-16T02:11:06;11.47;;;2.00;;
70560;SDS011;58109;53.570;10.084;2023-05-16T02:13:31;10.63;;;2.13;;
70560;SDS011;58109;53.570;10.084;2023-05-16T02:15:56;9.03;;;2.57;;
70560;SDS011;58109;53.570;10.084;2023-05-16T02:18:24;17.07;;;2.50;;
70560;SDS011;58109;53.570;10.084;2023-05-16T02:20:52;14.23;;;8.43;;
70560;SDS011;58109;53.570;10.084;2023-05-16T02:23:17;15.87;;;10.67;;
70560;SDS011;58109;53.570;10.084;2023-05-16T02:25:43;56.33;;;22.73;;
70560;SDS011;58109;53.570;10.084;2023-05-16T02:28:08;28.90;;;10.20;;
70560;SDS011;58109;53.570;10.084;2023-05-16T02:30:36;6.93;;;2.30;;
70560;SDS011;58109;53.570;10.084;2023-05-16T02:33:04;15.40;;;2.47;;
70560;SDS011;58109;53.570;10.084;2023-05-16T02:35:32;10.43;;;2.17;;
70560;SDS011;58109;53.570;10.084;2023-05-16T02:37:57;8.23;;;1.73;;
70560;SDS011;58109;53.570;10.084;2023-05-16T02:40:25;8.13;;;2.00;;
70560;SDS011;58109;53.570;10.084;2023-05-16T02:42:53;17.17;;;3.23;;
70560;SDS011;58109;53.570;10.084;2023-05-16T02:45:20;13.67;;;1.60;;
70560;SDS011;58109;53.570;10.084;2023-05-16T02:47:46;9.53;;;1.90;;
70560;SDS011;58109;53.570;10.084;2023-05-16T02:50:11;5.70;;;1.47;;
70560;SDS011;58109;53.570;10.084;2023-05-16T02:52:40;9.27;;;1.67;;
70560;SDS011;58109;53.570;10.084;2023-05-16T02:55:05;14.60;;;2.43;;
70560;SDS011;58109;53.570;10.084;2023-05-16T02:57:31;12.80;;;1.97;;
70560;SDS011;58109;53.570;10.084;2023-05-16T02:59:57;12.80;;;1.60;;
70560;SDS011;58109;53.570;10.084;2023-05-16T03:02:25;4.90;;;1.60;;
70560;SDS011;58109;53.570;10.084;2023-05-16T03:04:51;8.93;;;2.73;;
70560;SDS011;58109;53.570;10.084;2023-05-16T03:07:19;6.33;;;1.60;;
70560;SDS011;58109;53.570;10.084;2023-05-16T03:09:47;14.30;;;2.70;;
70560;SDS011;58109;53.570;10.084;2023-05-16T03:12:12;14.73;;;1.90;;
70560;SDS011;58109;53.570;10.084;2023-05-16T03:14:40;14.17;;;2.13;;
70560;SDS011;58109;53.570;10.084;2023-05-16T03:17:07;16.47;;;2.80;;
70560;SDS011;58109;53.570;10.084;2023-05-16T03:19:33;7.30;;;2.63;;
70560;SDS011;58109;53.570;10.084;2023-05-16T03:22:04;13.60;;;2.30;;
70560;SDS011;58109;53.570;10.084;2023-05-16T03:24:29;26.90;;;3.20;;
70560;SDS011;58109;53.570;10.084;2023-05-16T03:26:55;11.40;;;2.37;;
70560;SDS011;58109;53.570;10.084;2023-05-16T03:29:20;22.87;;;2.30;;
70560;SDS011;58109;53.570;10.084;2023-05-16T03:31:48;26.60;;;2.63;;
70560;SDS011;58109;53.570;10.084;2023-05-16T03:34:14;16.73;;;3.03;;
70560;SDS011;58109;53.570;10.084;2023-05-16T03:36:39;10.77;;;1.87;;
70560;SDS011;58109;53.570;10.084;2023-05-16T03:39:05;28.67;;;1.97;;
70560;SDS011;58109;53.570;10.084;2023-05-16T03:41:33;19.47;;;2.67;;
70560;SDS011;58109;53.570;10.084;2023-05-16T03:43:59;23.13;;;2.77;;
70560;SDS011;58109;53.570;10.084;2023-05-16T03:46:24;15.20;;;2.20;;
70560;SDS011;58109;53.570;10.084;2023-05-16T03:48:53;12.87;;;2.83;;
70560;SDS011;58109;53.570;10.084;2023-05-16T03:51:18;21.93;;;2.40;;
70560;SDS011;58109;53.570;10.084;2023-05-16T03:53:43;10.77;;;1.63;;
70560;SDS011;58109;53.570;10.084;2023-05-16T03:56:11;13.37;;;2.47;;
70560;SDS011;58109;53.570;10.084;2023-05-16T03:58:39;14.33;;;2.27;;
70560;SDS011;58109;53.570;10.084;2023-05-16T04:01:05;21.30;;;3.70;;
70560;SDS011;58109;53.570;10.084;2023-05-16T04:03:32;10.53;;;2.37;;
70560;SDS011;58109;53.570;10.084;2023-05-16T04:05:58;10.80;;;2.07;;
70560;SDS011;58109;53.570;10.084;2023-05-16T04:08:23;19.53;;;5.90;;
70560;SDS011;58109;53.570;10.084;2023-05-16T04:10:49;23.10;;;2.97;;
70560;SDS011;58109;53.570;10.084;2023-05-16T04:13:15;15.10;;;2.37;;
70560;SDS011;58109;53.570;10.084;2023-05-16T04:15:40;13.13;;;2.27;;
70560;SDS011;58109;53.570;10.084;2023-05-16T04:18:06;11.20;;;2.80;;
70560;SDS011;58109;53.570;10.084;2023-05-16T04:20:32;22.83;;;2.60;;
70560;SDS011;58109;53.570;10.084;2023-05-16T04:22:58;15.77;;;2.03;;
70560;SDS011;58109;53.570;10.084;2023-05-16T04:25:23;10.90;;;2.40;;
70560;SDS011;58109;53.570;10.084;2023-05-16T04:27:49;12.00;;;2.33;;
70560;SDS011;58109;53.570;10.084;2023-05-16T04:30:15;14.50;;;2.73;;
70560;SDS011;58109;53.570;10.084;2023-05-16T04:32:41;18.47;;;2.73;;
70560;SDS011;58109;53.570;10.084;2023-05-16T04:35:09;14.00;;;2.50;;
70560;SDS011;58109;53.570;10.084;2023-05-16T04:37:39;11.07;;;2.73;;
70560;SDS011;58109;53.570;10.084;2023-05-16T04:40:05;25.07;;;3.97;;
70560;SDS011;58109;53.570;10.084;2023-05-16T04:42:31;15.33;;;2.27;;
70560;SDS011;58109;53.570;10.084;2023-05-16T04:44:59;15.60;;;2.90;;
70560;SDS011;58109;53.570;10.084;2023-05-16T04:47:25;32.60;;;3.60;;
70560;SDS011;58109;53.570;10.084;2023-05-16T04:49:53;18.87;;;2.77;;
70560;SDS011;58109;53.570;10.084;2023-05-16T04:52:18;28.00;;;3.90;;
70560;SDS011;58109;53.570;10.084;2023-05-16T04:54:49;16.63;;;2.57;;
70560;SDS011;58109;53.570;10.084;2023-05-16T04:57:17;40.57;;;3.63;;
70560;SDS011;58109;53.570;10.084;2023-05-16T04:59:45;12.40;;;2.10;;
70560;SDS011;58109;53.570;10.084;2023-05-16T05:02:10;27.67;;;4.17;;
70560;SDS011;58109;53.570;10.084;2023-05-16T05:04:35;12.63;;;2.37;;
70560;SDS011;58109;53.570;10.084;2023-05-16T05:07:03;16.57;;;2.73;;
70560;SDS011;58109;53.570;10.084;2023-05-16T05:09:28;22.47;;;2.60;;
70560;SDS011;58109;53.570;10.084;2023-05-16T05:11:57;16.00;;;2.57;;
70560;SDS011;58109;53.570;10.084;2023-05-16T05:14:24;18.33;;;2.80;;
70560;SDS011;58109;53.570;10.084;2023-05-16T05:16:50;17.37;;;2.53;;
70560;SDS011;58109;53.570;10.084;2023-05-16T05:19:17;16.00;;;2.47;;
70560;SDS011;58109;53.570;10.084;2023-05-16T05:21:43;16.63;;;2.07;;
70560;SDS011;58109;53.570;10.084;2023-05-16T05:24:08;20.40;;;2.83;;
70560;SDS011;58109;53.570;10.084;2023-05-16T05:26:34;18.03;;;2.10;;
70560;SDS011;58109;53.570;10.084;2023-05-16T05:28:59;9.80;;;2.10;;
70560;SDS011;58109;53.570;10.084;2023-05-16T05:31:27;21.03;;;2.83;;
70560;SDS011;58109;53.570;10.084;2023-05-16T05:33:55;15.77;;;2.77;;
70560;SDS011;58109;53.570;10.084;2023-05-16T05:36:23;8.60;;;2.10;;
70560;SDS011;58109;53.570;10.084;2023-05-16T05:38:48;9.80;;;2.23;;
70560;SDS011;58109;53.570;10.084;2023-05-16T05:41:16;15.70;;;2.33;;
70560;SDS011;58109;53.570;10.084;2023-05-16T05:43:41;22.97;;;2.50;;
70560;SDS011;58109;53.570;10.084;2023-05-16T05:46:07;23.07;;;2.73;;
70560;SDS011;58109;53.570;10.084;2023-05-16T05:48:34;15.83;;;1.80;;
70560;SDS011;58109;53.570;10.084;2023-05-16T05:51:02;14.73;;;2.40;;
70560;SDS011;58109;53.570;10.084;2023-05-16T05:53:30;14.80;;;2.60;;
70560;SDS011;58109;53.570;10.084;2023-05-16T05:55:55;16.27;;;2.77;;
70560;SDS011;58109;53.570;10.084;2023-05-16T05:58:23;24.10;;;2.60;;
70560;SDS011;58109;53.570;10.084;2023-05-16T06:00:49;14.83;;;2.27;;
70560;SDS011;58109;53.570;10.084;2023-05-16T06:03:14;21.13;;;2.93;;
70560;SDS011;58109;53.570;10.084;2023-05-16T06:05:44;15.03;;;2.30;;
70560;SDS011;58109;53.570;10.084;2023-05-16T06:08:12;10.17;;;2.63;;
70560;SDS011;58109;53.570;10.084;2023-05-16T06:10:38;20.00;;;2.37;;
70560;SDS011;58109;53.570;10.084;2023-05-16T06:13:03;12.30;;;1.90;;
70560;SDS011;58109;53.570;10.084;2023-05-16T06:15:29;13.80;;;1.97;;
70560;SDS011;58109;53.570;10.084;2023-05-16T06:17:54;12.63;;;2.40;;
70560;SDS011;58109;53.570;10.084;2023-05-16T06:20:20;19.43;;;2.50;;
70560;SDS011;58109;53.570;10.084;2023-05-16T06:22:46;21.30;;;2.43;;
70560;SDS011;58109;53.570;10.084;2023-05-16T06:25:11;14.13;;;2.57;;
70560;SDS011;58109;53.570;10.084;2023-05-16T06:27:39;14.47;;;2.00;;
70560;SDS011;58109;53.570;10.084;2023-05-16T06:30:05;16.73;;;2.50;;
70560;SDS011;58109;53.570;10.084;2023-05-16T06:32:30;15.40;;;2.17;;
70560;SDS011;58109;53.570;10.084;2023-05-16T06:34:56;11.60;;;2.07;;
70560;SDS011;58109;53.570;10.084;2023-05-16T06:37:24;12.93;;;2.70;;
70560;SDS011;58109;53.570;10.084;2023-05-16T06:39:50;9.20;;;2.33;;
70560;SDS011;58109;53.570;10.084;2023-05-16T06:42:16;19.40;;;2.30;;
70560;SDS011;58109;53.570;10.084;2023-05-16T06:44:41;12.83;;;2.23;;
70560;SDS011;58109;53.570;10.084;2023-05-16T06:47:06;19.47;;;1.87;;
70560;SDS011;58109;53.570;10.084;2023-05-16T06:49:32;10.87;;;2.27;;
70560;SDS011;58109;53.570;10.084;2023-05-16T06:51:58;16.87;;;2.40;;
70560;SDS011;58109;53.570;10.084;2023-05-16T06:54:26;15.77;;;1.83;;
70560;SDS011;58109;53.570;10.084;2023-05-16T06:56:54;13.00;;;1.93;;
70560;SDS011;58109;53.570;10.084;2023-05-16T06:59:21;11.67;;;1.80;;
70560;SDS011;58109;53.570;10.084;2023-05-16T07:01:47;13.57;;;2.50;;
70560;SDS011;58109;53.570;10.084;2023-05-16T07:04:15;18.23;;;2.00;;
70560;SDS011;58109;53.570;10.084;2023-05-16T07:06:43;12.93;;;2.30;;
70560;SDS011;58109;53.570;10.084;2023-05-16T07:09:08;13.43;;;2.10;;
70560;SDS011;58109;53.570;10.084;2023-05-16T07:11:34;26.43;;;2.50;;
70560;SDS011;58109;53.570;10.084;2023-05-16T07:13:59;11.63;;;2.83;;
70560;SDS011;58109;53.570;10.084;2023-05-16T07:16:25;13.30;;;2.03;;
70560;SDS011;58109;53.570;10.084;2023-05-16T07:18:53;12.87;;;2.03;;
70560;SDS011;58109;53.570;10.084;2023-05-16T07:21:18;10.03;;;1.83;;
70560;SDS011;58109;53.570;10.084;2023-05-16T07:23:46;14.97;;;2.00;;
70560;SDS011;58109;53.570;10.084;2023-05-16T07:26:12;9.77;;;1.83;;
70560;SDS011;58109;53.570;10.084;2023-05-16T07:28:40;12.10;;;1.80;;
70560;SDS011;58109;53.570;10.084;2023-05-16T07:31:08;17.63;;;2.00;;
70560;SDS011;58109;53.570;10.084;2023-05-16T07:33:34;6.90;;;1.47;;
70560;SDS011;58109;53.570;10.084;2023-05-16T07:35:59;14.57;;;2.13;;
70560;SDS011;58109;53.570;10.084;2023-05-16T07:38:25;9.73;;;1.80;;
70560;SDS011;58109;53.570;10.084;2023-05-16T07:40:50;10.70;;;1.60;;
70560;SDS011;58109;53.570;10.084;2023-05-16T07:43:16;19.90;;;1.80;;
70560;SDS011;58109;53.570;10.084;2023-05-16T07:45:44;39.77;;;3.10;;
70560;SDS011;58109;53.570;10.084;2023-05-16T07:48:10;10.33;;;1.80;;
70560;SDS011;58109;53.570;10.084;2023-05-16T07:50:38;17.27;;;2.13;;
70560;SDS011;58109;53.570;10.084;2023-05-16T07:53:03;9.97;;;1.70;;
70560;SDS011;58109;53.570;10.084;2023-05-16T07:55:29;17.33;;;2.20;;
70560;SDS011;58109;53.570;10.084;2023-05-16T07:57:54;10.97;;;1.80;;
70560;SDS011;58109;53.570;10.084;2023-05-16T08:00:22;8.50;;;1.50;;
70560;SDS011;58109;53.570;10.084;2023-05-16T08:02:47;11.03;;;1.93;;
70560;SDS011;58109;53.570;10.084;2023-05-16T08:05:13;29.97;;;8.60;;
70560;SDS011;58109;53.570;10.084;2023-05-16T08:07:38;14.60;;;3.27;;
70560;SDS011;58109;53.570;10.084;2023-05-16T08:10:04;7.50;;;1.80;;
70560;SDS011;58109;53.570;10.084;2023-05-16T08:12:30;7.53;;;1.27;;
70560;SDS011;58109;53.570;10.084;2023-05-16T08:14:57;14.80;;;2.50;;
70560;SDS011;58109;53.570;10.084;2023-05-16T08:17:26;9.00;;;2.30;;
70560;SDS011;58109;53.570;10.084;2023-05-16T08:19:54;16.67;;;4.70;;
70560;SDS011;58109;53.570;10.084;2023-05-16T08:22:23;14.47;;;3.00;;
70560;SDS011;58109;53.570;10.084;2023-05-16T08:24:50;10.67;;;2.80;;
70560;SDS011;58109;53.570;10.084;2023-05-16T08:27:18;7.67;;;1.53;;
70560;SDS011;58109;53.570;10.084;2023-05-16T08:29:44;10.33;;;1.73;;
70560;SDS011;58109;53.570;10.084;2023-05-16T08:32:09;21.83;;;6.50;;
70560;SDS011;58109;53.570;10.084;2023-05-16T08:34:35;23.67;;;5.03;;
70560;SDS011;58109;53.570;10.084;2023-05-16T08:37:03;6.80;;;1.90;;
70560;SDS011;58109;53.570;10.084;2023-05-16T08:39:30;8.10;;;1.53;;
70560;SDS011;58109;53.570;10.084;2023-05-16T08:41:56;6.87;;;2.00;;
70560;SDS011;58109;53.570;10.084;2023-05-16T08:44:22;13.70;;;2.70;;
70560;SDS011;58109;53.570;10.084;2023-05-16T08:46:51;19.20;;;3.73;;
70560;SDS011;58109;53.570;10.084;2023-05-16T08:49:20;12.00;;;3.80;;
70560;SDS011;58109;53.570;10.084;2023-05-16T08:51:46;12.00;;;2.30;;
70560;SDS011;58109;53.570;10.084;2023-05-16T08:54:14;8.10;;;1.63;;
70560;SDS011;58109;53.570;10.084;2023-05-16T08:56:41;9.10;;;1.60;;
70560;SDS011;58109;53.570;10.084;2023-05-16T08:59:07;6.33;;;1.50;;
70560;SDS011;58109;53.570;10.084;2023-05-16T09:01:32;5.33;;;1.67;;
70560;SDS011;58109;53.570;10.084;2023-05-16T09:04:00;8.00;;;1.60;;
70560;SDS011;58109;53.570;10.084;2023-05-16T09:06:30;11.73;;;1.20;;
70560;SDS011;58109;53.570;10.084;2023-05-16T09:09:00;6.63;;;1.03;;
70560;SDS011;58109;53.570;10.084;2023-05-16T09:11:29;7.47;;;1.30;;
70560;SDS011;58109;53.570;10.084;2023-05-16T09:13:54;4.77;;;1.53;;
70560;SDS011;58109;53.570;10.084;2023-05-16T09:16:20;8.33;;;1.60;;
70560;SDS011;58109;53.570;10.084;2023-05-16T09:18:57;11.67;;;1.73;;
70560;SDS011;58109;53.570;10.084;2023-05-16T09:21:27;13.53;;;1.63;;
70560;SDS011;58109;53.570;10.084;2023-05-16T09:24:01;11.53;;;1.80;;
70560;SDS011;58109;53.570;10.084;2023-05-16T09:26:29;31.73;;;3.40;;
70560;SDS011;58109;53.570;10.084;2023-05-16T09:28:55;11.27;;;1.70;;
70560;SDS011;58109;53.570;10.084;2023-05-16T09:31:26;9.33;;;1.87;;
70560;SDS011;58109;53.570;10.084;2023-05-16T09:34:03;8.90;;;2.63;;
70560;SDS011;58109;53.570;10.084;2023-05-16T09:36:31;13.63;;;1.90;;
70560;SDS011;58109;53.570;10.084;2023-05-16T09:38:57;12.60;;;1.70;;
70560;SDS011;58109;53.570;10.084;2023-05-16T09:41:22;17.87;;;1.97;;
70560;SDS011;58109;53.570;10.084;2023-05-16T09:43:48;17.90;;;2.47;;
70560;SDS011;58109;53.570;10.084;2023-05-16T09:46:14;8.53;;;1.90;;
70560;SDS011;58109;53.570;10.084;2023-05-16T09:48:40;13.40;;;1.53;;
70560;SDS011;58109;53.570;10.084;2023-05-16T09:51:11;9.10;;;2.07;;
70560;SDS011;58109;53.570;10.084;2023-05-16T09:53:37;11.40;;;1.90;;
70560;SDS011;58109;53.570;10.084;2023-05-16T09:56:07;10.00;;;2.17;;
70560;SDS011;58109;53.570;10.084;2023-05-16T09:58:36;7.23;;;1.70;;
70560;SDS011;58109;53.570;10.084;2023-05-16T10:01:03;7.20;;;1.70;;
70560;SDS011;58109;53.570;10.084;2023-05-16T10:03:29;6.40;;;1.57;;
70560;SDS011;58109;53.570;10.084;2023-05-16T10:05:54;7.93;;;1.63;;
70560;SDS011;58109;53.570;10.084;2023-05-16T10:08:24;11.00;;;1.80;;
70560;SDS011;58109;53.570;10.084;2023-05-16T10:10:55;9.23;;;1.53;;
70560;SDS011;58109;53.570;10.084;2023-05-16T10:13:23;15.40;;;2.00;;
70560;SDS011;58109;53.570;10.084;2023-05-16T10:15:55;16.70;;;2.10;;
70560;SDS011;58109;53.570;10.084;2023-05-16T10:18:22;9.77;;;2.00;;
70560;SDS011;58109;53.570;10.084;2023-05-16T10:20:52;13.23;;;1.70;;
70560;SDS011;58109;53.570;10.084;2023-05-16T10:23:19;18.33;;;2.23;;
70560;SDS011;58109;53.570;10.084;2023-05-16T10:25:47;10.10;;;1.73;;
70560;SDS011;58109;53.570;10.084;2023-05-16T10:28:14;12.17;;;1.90;;
70560;SDS011;58109;53.570;10.084;2023-05-16T10:30:43;13.33;;;2.00;;
70560;SDS011;58109;53.570;10.084;2023-05-16T10:33:14;9.20;;;2.10;;
70560;SDS011;58109;53.570;10.084;2023-05-16T10:35:43;14.13;;;2.83;;
70560;SDS011;58109;53.570;10.084;2023-05-16T10:38:09;11.00;;;2.20;;
70560;SDS011;58109;53.570;10.084;2023-05-16T10:40:36;14.83;;;3.07;;
70560;SDS011;58109;53.570;10.084;2023-05-16T10:43:04;15.33;;;2.03;;
70560;SDS011;58109;53.570;10.084;2023-05-16T10:45:35;9.87;;;2.03;;
70560;SDS011;58109;53.570;10.084;2023-05-16T10:48:04;15.53;;;3.83;;
70560;SDS011;58109;53.570;10.084;2023-05-16T10:50:38;12.23;;;2.00;;
70560;SDS011;58109;53.570;10.084;2023-05-16T11:01:25;16.37;;;2.03;;
70560;SDS011;58109;53.570;10.084;2023-05-16T11:06:24;15.33;;;1.43;;
70560;SDS011;58109;53.570;10.084;2023-05-16T11:14:08;12.10;;;2.23;;
70560;SDS011;58109;53.570;10.084;2023-05-16T11:16:37;8.43;;;1.63;;
70560;SDS011;58109;53.570;10.084;2023-05-16T11:19:05;15.13;;;1.83;;
70560;SDS011;58109;53.570;10.084;2023-05-16T11:24:35;7.73;;;1.47;;
70560;SDS011;58109;53.570;10.084;2023-05-16T11:27:04;4.53;;;1.37;;
70560;SDS011;58109;53.570;10.084;2023-05-16T11:29:33;4.50;;;1.17;;
70560;SDS011;58109;53.570;10.084;2023-05-16T11:32:03;11.37;;;1.20;;
70560;SDS011;58109;53.570;10.084;2023-05-16T11:34:29;10.50;;;2.67;;
70560;SDS011;58109;53.570;10.084;2023-05-16T11:36:55;3.80;;;1.10;;
70560;SDS011;58109;53.570;10.084;2023-05-16T11:39:24;3.90;;;1.33;;
70560;SDS011;58109;53.570;10.084;2023-05-16T11:41:58;3.77;;;1.40;;
70560;SDS011;58109;53.570;10.084;2023-05-16T11:44:29;4.37;;;1.37;;
70560;SDS011;58109;53.570;10.084;2023-05-16T11:46:57;3.77;;;1.20;;
70560;SDS011;58109;53.570;10.084;2023-05-16T11:49:23;11.83;;;1.80;;
70560;SDS011;58109;53.570;10.084;2023-05-16T11:51:51;7.83;;;1.40;;
70560;SDS011;58109;53.570;10.084;2023-05-16T11:54:18;12.00;;;1.73;;
70560;SDS011;58109;53.570;10.084;2023-05-16T11:56:43;5.03;;;1.00;;
70560;SDS011;58109;53.570;10.084;2023-05-16T11:59:09;3.03;;;1.10;;
70560;SDS011;58109;53.570;10.084;2023-05-16T12:01:38;10.67;;;1.20;;
70560;SDS011;58109;53.570;10.084;2023-05-16T12:04:10;4.10;;;1.00;;
70560;SDS011;58109;53.570;10.084;2023-05-16T12:06:39;6.43;;;1.23;;
70560;SDS011;58109;53.570;10.084;2023-05-16T12:09:12;6.80;;;2.00;;
70560;SDS011;58109;53.570;10.084;2023-05-16T12:11:42;9.10;;;1.30;;
70560;SDS011;58109;53.570;10.084;2023-05-16T12:14:11;9.37;;;1.80;;
70560;SDS011;58109;53.570;10.084;2023-05-16T12:16:37;17.70;;;2.03;;
70560;SDS011;58109;53.570;10.084;2023-05-16T12:19:06;26.33;;;2.70;;
70560;SDS011;58109;53.570;10.084;2023-05-16T12:21:34;6.40;;;1.30;;
70560;SDS011;58109;53.570;10.084;2023-05-16T12:24:02;7.13;;;1.63;;
70560;SDS011;58109;53.570;10.084;2023-05-16T12:26:29;11.70;;;1.70;;
70560;SDS011;58109;53.570;10.084;2023-05-16T12:28:59;4.90;;;1.10;;
70560;SDS011;58109;53.570;10.084;2023-05-16T12:31:27;2.50;;;1.27;;
70560;SDS011;58109;53.570;10.084;2023-05-16T12:33:56;9.53;;;1.50;;
70560;SDS011;58109;53.570;10.084;2023-05-16T12:36:22;5.40;;;1.30;;
70560;SDS011;58109;53.570;10.084;2023-05-16T12:38:48;13.03;;;1.80;;
70560;SDS011;58109;53.570;10.084;2023-05-16T12:41:17;16.37;;;1.67;;
70560;SDS011;58109;53.570;10.084;2023-05-16T12:43:46;14.80;;;1.47;;
70560;SDS011;58109;53.570;10.084;2023-05-16T12:46:14;10.13;;;1.47;;
70560;SDS011;58109;53.570;10.084;2023-05-16T12:48:39;7.90;;;1.40;;
70560;SDS011;58109;53.570;10.084;2023-05-16T12:51:18;9.17;;;2.03;;
70560;SDS011;58109;53.570;10.084;2023-05-16T12:53:47;5.73;;;1.67;;
70560;SDS011;58109;53.570;10.084;2023-05-16T12:56:13;9.40;;;1.67;;
70560;SDS011;58109;53.570;10.084;2023-05-16T12:58:41;70.47;;;6.57;;
70560;SDS011;58109;53.570;10.084;2023-05-16T13:01:07;19.97;;;2.17;;
70560;SDS011;58109;53.570;10.084;2023-05-16T13:03:35;21.63;;;1.93;;
70560;SDS011;58109;53.570;10.084;2023-05-16T13:06:03;6.50;;;1.53;;
70560;SDS011;58109;53.570;10.084;2023-05-16T13:08:30;14.93;;;1.70;;
70560;SDS011;58109;53.570;10.084;2023-05-16T13:10:58;9.43;;;1.57;;
70560;SDS011;58109;53.570;10.084;2023-05-16T13:13:24;9.27;;;2.10;;
70560;SDS011;58109;53.570;10.084;2023-05-16T13:15:50;10.27;;;1.40;;
70560;SDS011;58109;53.570;10.084;2023-05-16T13:18:20;5.73;;;1.47;;
70560;SDS011;58109;53.570;10.084;2023-05-16T13:20:47;7.60;;;1.50;;
70560;SDS011;58109;53.570;10.084;2023-05-16T13:23:17;7.17;;;1.47;;
70560;SDS011;58109;53.570;10.084;2023-05-16T13:25:43;10.23;;;1.43;;
70560;SDS011;58109;53.570;10.084;2023-05-16T13:28:11;14.53;;;1.50;;
70560;SDS011;58109;53.570;10.084;2023-05-16T13:30:39;6.33;;;1.30;;
70560;SDS011;58109;53.570;10.084;2023-05-16T13:33:04;8.03;;;1.30;;
70560;SDS011;58109;53.570;10.084;2023-05-16T13:35:32;4.37;;;1.50;;
70560;SDS011;58109;53.570;10.084;2023-05-16T13:37:58;6.53;;;1.70;;
70560;SDS011;58109;53.570;10.084;2023-05-16T13:40:23;5.80;;;2.00;;
70560;SDS011;58109;53.570;10.084;2023-05-16T13:42:52;6.40;;;1.20;;
70560;SDS011;58109;53.570;10.084;2023-05-16T13:45:20;6.53;;;1.20;;
70560;SDS011;58109;53.570;10.084;2023-05-16T13:47:48;6.20;;;1.43;;
70560;SDS011;58109;53.570;10.084;2023-05-16T13:50:15;6.40;;;1.10;;
70560;SDS011;58109;53.570;10.084;2023-05-16T13:52:41;11.40;;;1.40;;
70560;SDS011;58109;53.570;10.084;2023-05-16T13:55:11;6.73;;;1.20;;
70560;SDS011;58109;53.570;10.084;2023-05-16T13:57:37;4.00;;;1.07;;
70560;SDS011;58109;53.570;10.084;2023-05-16T14:00:02;2.53;;;1.00;;
70560;SDS011;58109;53.570;10.084;2023-05-16T14:02:40;7.17;;;1.10;;
70560;SDS011;58109;53.570;10.084;2023-05-16T14:05:09;4.37;;;1.20;;
70560;SDS011;58109;53.570;10.084;2023-05-16T14:07:36;2.27;;;0.90;;
70560;SDS011;58109;53.570;10.084;2023-05-16T14:10:04;1.70;;;1.07;;
70560;SDS011;58109;53.570;10.084;2023-05-16T14:12:30;3.90;;;0.80;;
70560;SDS011;58109;53.570;10.084;2023-05-16T14:14:56;3.40;;;1.27;;
70560;SDS011;58109;53.570;10.084;2023-05-16T14:17:21;5.80;;;1.57;;
70560;SDS011;58109;53.570;10.084;2023-05-16T14:19:47;5.53;;;1.20;;
70560;SDS011;58109;53.570;10.084;2023-05-16T14:22:12;4.10;;;1.00;;
70560;SDS011;58109;53.570;10.084;2023-05-16T14:24:37;5.70;;;1.30;;
70560;SDS011;58109;53.570;10.084;2023-05-16T14:27:03;3.87;;;1.20;;
70560;SDS011;58109;53.570;10.084;2023-05-16T14:29:33;5.27;;;1.20;;
70560;SDS011;58109;53.570;10.084;2023-05-16T14:32:03;14.43;;;2.00;;
70560;SDS011;58109;53.570;10.084;2023-05-16T14:34:34;5.93;;;1.50;;
70560;SDS011;58109;53.570;10.084;2023-05-16T14:36:59;3.70;;;1.30;;
70560;SDS011;58109;53.570;10.084;2023-05-16T14:39:25;6.63;;;2.03;;
70560;SDS011;58109;53.570;10.084;2023-05-16T14:41:51;19.20;;;1.70;;
70560;SDS011;58109;53.570;10.084;2023-05-16T14:44:16;6.80;;;1.50;;
70560;SDS011;58109;53.570;10.084;2023-05-16T14:46:42;7.13;;;1.27;;
70560;SDS011;58109;53.570;10.084;2023-05-16T14:49:07;6.73;;;1.90;;
70560;SDS011;58109;53.570;10.084;2023-05-16T14:51:37;2.53;;;1.07;;